Terminal Aerodrome Forecast
Issued by NWS

Home | Current Version | Previous Version | Text Only | Print | Product List | Glossary On
Versions: 1 2 3 4 5 6 7 8 9 10 11 12 13 14
000
FTUS45 KTFX 290712 AAA
TAFCTB
TAF AMD
KCTB 290712Z 2907/3006 VRB06KT P6SM VCTS SCT070CB BKN120
      TEMPO 2907/2909 2SM TSRA BKN040CB
     FM290900 04006KT P6SM SCT120
     FM292000 16008KT P6SM VCTS SCT060CB BKN150=

USA.gov is the U.S. government's official web portal to all federal, state and local government web resources and services.